Time;durP1;ratioP1;P1;durP2;ratioP2;P2;SDS_P1;SDS_P2;PMS_P1;PMS_P2;Temp;Humidity;BMP_temperature;BMP_pressure;BME280_temperature;BME280_humidity;BME280_pressure;Samples;Min_cycle;Max_cycle;Signal;HPM_P1;HPM_P2
2021/01/01 00:01:30;;;;;;;75.17;31.33;;;3.50;99.90;;;;;;5071798;28;20245;-81
2021/01/01 00:03:57;;;;;;;81.00;31.97;;;3.40;99.90;;;;;;5070095;28;20552;-81
2021/01/01 00:06:23;;;;;;;74.87;31.27;;;3.40;99.90;;;;;;5065678;28;20226;-81
2021/01/01 00:08:50;;;;;;;77.57;31.57;;;3.40;99.90;;;;;;5071289;28;20199;-81
2021/01/01 00:11:17;;;;;;;81.60;31.43;;;3.40;99.90;;;;;;5056592;28;20703;-81
2021/01/01 00:13:43;;;;;;;83.03;31.90;;;3.40;99.90;;;;;;5069145;28;20331;-81
2021/01/01 00:16:10;;;;;;;79.97;33.00;;;3.30;99.90;;;;;;5062401;28;20738;-81
2021/01/01 00:18:37;;;;;;;85.20;32.67;;;3.30;99.90;;;;;;5063613;28;20223;-81
2021/01/01 00:21:05;;;;;;;83.03;33.07;;;3.30;99.90;;;;;;5068132;28;20258;-81
2021/01/01 00:23:32;;;;;;;77.67;31.40;;;3.30;99.90;;;;;;5052923;28;20236;-81
2021/01/01 00:25:58;;;;;;;81.93;31.90;;;3.30;99.90;;;;;;5056512;28;20279;-81
2021/01/01 00:28:25;;;;;;;84.47;33.20;;;3.40;99.90;;;;;;5063726;28;20207;-81
2021/01/01 00:30:52;;;;;;;87.77;33.27;;;3.40;99.90;;;;;;5072609;28;20268;-81
2021/01/01 00:33:19;;;;;;;83.57;32.73;;;3.40;99.90;;;;;;5072553;28;20232;-81
2021/01/01 00:35:45;;;;;;;91.07;33.10;;;3.40;99.90;;;;;;5072474;28;20290;-81
2021/01/01 00:38:13;;;;;;;94.13;33.90;;;3.40;99.90;;;;;;5072292;28;20342;-81
2021/01/01 00:40:39;;;;;;;93.27;34.13;;;3.50;99.90;;;;;;5072003;28;20688;-81
2021/01/01 00:43:06;;;;;;;97.03;32.93;;;3.60;99.90;;;;;;5071751;28;20248;-81
2021/01/01 00:45:33;;;;;;;89.77;33.27;;;3.60;99.90;;;;;;5073798;28;20204;-81
2021/01/01 00:47:59;;;;;;;87.13;32.03;;;3.60;99.90;;;;;;5071493;28;20293;-82
2021/01/01 00:50:27;;;;;;;94.47;33.33;;;3.50;99.90;;;;;;5073303;28;20263;-82
2021/01/01 00:52:53;;;;;;;93.83;32.63;;;3.60;99.90;;;;;;5060716;28;20839;-81
2021/01/01 00:55:21;;;;;;;94.47;33.60;;;3.70;99.90;;;;;;5064157;28;20215;-82
2021/01/01 00:57:47;;;;;;;86.53;31.77;;;3.70;99.90;;;;;;5065422;28;20288;-82
2021/01/01 01:00:15;;;;;;;81.33;31.77;;;3.80;99.90;;;;;;5060856;28;20269;-81
2021/01/01 01:02:41;;;;;;;89.77;32.10;;;3.80;99.90;;;;;;5061225;28;20209;-81
2021/01/01 01:05:08;;;;;;;81.03;30.90;;;3.90;99.90;;;;;;5065960;28;20206;-81
2021/01/01 01:07:35;;;;;;;84.40;30.50;;;4.10;99.90;;;;;;5063781;28;20204;-81
2021/01/01 01:10:01;;;;;;;77.40;30.37;;;4.10;99.90;;;;;;5071206;28;20249;-81
2021/01/01 01:12:29;;;;;;;88.80;30.93;;;4.10;99.90;;;;;;5058779;28;20205;-81
2021/01/01 01:14:56;;;;;;;84.03;29.77;;;4.10;99.90;;;;;;5061840;28;20314;-80
2021/01/01 01:17:22;;;;;;;80.47;29.63;;;4.00;99.90;;;;;;5067527;28;20200;-81
2021/01/01 01:19:49;;;;;;;85.40;29.50;;;4.00;99.90;;;;;;5071115;28;20209;-81
2021/01/01 01:22:15;;;;;;;85.83;29.47;;;4.00;99.90;;;;;;5061568;28;20214;-81
2021/01/01 01:24:41;;;;;;;85.57;29.50;;;4.00;99.90;;;;;;5069875;28;20212;-81
2021/01/01 01:27:08;;;;;;;80.17;28.70;;;4.10;99.90;;;;;;5074206;28;20556;-81
2021/01/01 01:29:35;;;;;;;84.63;29.17;;;4.10;99.90;;;;;;5068319;28;20650;-81
2021/01/01 01:32:01;;;;;;;79.30;27.87;;;4.10;99.90;;;;;;5071091;28;20734;-81
2021/01/01 01:34:28;;;;;;;85.80;28.23;;;4.10;99.90;;;;;;5072099;28;20363;-81
2021/01/01 01:36:54;;;;;;;70.77;27.27;;;4.10;99.90;;;;;;5075123;28;20201;-81
2021/01/01 01:39:20;;;;;;;80.43;26.53;;;4.20;99.90;;;;;;5074645;28;20204;-81
2021/01/01 01:41:49;;;;;;;81.87;27.23;;;4.40;99.90;;;;;;5074909;28;20209;-81
2021/01/01 01:44:17;;;;;;;75.87;25.93;;;4.30;99.90;;;;;;5074078;28;20204;-81
2021/01/01 01:46:46;;;;;;;69.53;26.03;;;4.20;99.90;;;;;;5074062;28;20730;-81
2021/01/01 01:49:16;;;;;;;58.27;24.13;;;4.20;99.90;;;;;;5074658;28;20289;-81
2021/01/01 01:51:46;;;;;;;62.40;25.77;;;4.30;99.90;;;;;;5074605;28;20195;-81
2021/01/01 01:54:13;;;;;;;70.33;26.17;;;4.40;99.90;;;;;;5071477;28;20221;-81
2021/01/01 01:56:41;;;;;;;63.67;26.03;;;4.40;99.90;;;;;;5072117;28;20200;-81
2021/01/01 01:59:08;;;;;;;66.23;26.60;;;4.30;99.90;;;;;;5074757;28;20216;-81
2021/01/01 02:01:37;;;;;;;59.57;24.83;;;4.40;99.90;;;;;;5064620;28;20197;-81
2021/01/01 02:04:07;;;;;;;56.70;23.73;;;4.30;99.90;;;;;;5074872;28;20356;-81
2021/01/01 02:06:33;;;;;;;53.97;22.17;;;4.30;99.90;;;;;;5074102;28;20209;-81
2021/01/01 02:09:00;;;;;;;56.60;22.93;;;4.30;99.90;;;;;;5075030;28;20220;-81
2021/01/01 02:11:26;;;;;;;64.90;24.33;;;4.40;99.90;;;;;;5074349;28;20204;-81
2021/01/01 02:13:56;;;;;;;47.77;21.10;;;4.40;99.90;;;;;;5074309;28;20678;-81
2021/01/01 02:16:26;;;;;;;53.77;21.00;;;4.30;99.90;;;;;;5073881;28;20209;-81
2021/01/01 02:18:53;;;;;;;46.77;20.17;;;4.30;99.90;;;;;;5072888;28;20277;-81
2021/01/01 02:21:21;;;;;;;42.50;19.47;;;4.30;99.90;;;;;;5073898;28;20205;-81
2021/01/01 02:23:49;;;;;;;46.40;20.60;;;4.20;99.90;;;;;;5074124;28;20678;-81
2021/01/01 02:26:16;;;;;;;47.37;19.30;;;4.20;99.90;;;;;;5074493;28;20214;-80
2021/01/01 02:28:42;;;;;;;33.50;17.23;;;4.20;99.90;;;;;;5074579;28;20208;-81
2021/01/01 02:31:10;;;;;;;41.23;16.93;;;4.20;99.90;;;;;;5074040;28;20232;-81
2021/01/01 02:33:36;;;;;;;37.60;17.53;;;4.20;99.90;;;;;;5073866;28;20724;-81
2021/01/01 02:36:02;;;;;;;40.07;18.13;;;4.10;99.90;;;;;;5073017;28;20255;-81
2021/01/01 02:38:29;;;;;;;37.37;17.80;;;3.90;99.90;;;;;;5073914;28;20207;-81
2021/01/01 02:40:56;;;;;;;36.03;17.40;;;3.80;99.90;;;;;;5073629;28;20210;-82
2021/01/01 02:43:23;;;;;;;44.47;19.50;;;3.80;99.90;;;;;;5073772;28;20647;-81
2021/01/01 02:45:50;;;;;;;38.17;17.80;;;3.70;99.90;;;;;;5073659;28;20829;-81
2021/01/01 02:48:17;;;;;;;36.30;19.17;;;3.70;99.90;;;;;;5073395;28;20209;-81
2021/01/01 02:50:45;;;;;;;40.97;17.77;;;3.60;99.90;;;;;;5073496;28;20205;-81
2021/01/01 02:53:12;;;;;;;35.17;17.67;;;3.40;99.90;;;;;;5073544;28;20204;-81
2021/01/01 02:55:38;;;;;;;41.93;18.33;;;3.40;99.90;;;;;;5073451;28;20556;-82
2021/01/01 02:58:06;;;;;;;38.23;17.93;;;3.30;99.90;;;;;;5073078;28;20212;-81
2021/01/01 03:00:35;;;;;;;37.23;16.60;;;3.20;99.90;;;;;;5073535;28;20206;-81
2021/01/01 03:03:02;;;;;;;39.87;18.57;;;3.20;99.90;;;;;;5073411;28;20207;-81
2021/01/01 03:05:28;;;;;;;39.80;17.80;;;3.10;99.90;;;;;;5073510;28;20232;-81
2021/01/01 03:07:54;;;;;;;43.87;17.57;;;3.10;99.90;;;;;;5073212;28;20205;-81
2021/01/01 03:10:21;;;;;;;41.70;17.77;;;3.10;99.90;;;;;;5073153;28;20213;-81
2021/01/01 03:12:47;;;;;;;38.00;16.93;;;3.10;99.90;;;;;;5073454;28;20207;-81
2021/01/01 03:15:15;;;;;;;40.10;16.93;;;3.10;99.90;;;;;;5073344;28;20228;-81
2021/01/01 03:17:42;;;;;;;39.83;18.23;;;3.20;99.90;;;;;;5073048;28;20201;-81
2021/01/01 03:20:10;;;;;;;39.30;18.13;;;3.30;99.90;;;;;;5073029;28;20304;-81
2021/01/01 03:22:36;;;;;;;39.47;17.07;;;3.30;99.90;;;;;;5072791;28;20724;-81
2021/01/01 03:25:05;;;;;;;40.80;17.40;;;3.30;99.90;;;;;;5072950;28;20680;-81
2021/01/01 03:27:31;;;;;;;40.77;17.20;;;3.30;99.90;;;;;;5072522;28;20265;-81
2021/01/01 03:29:57;;;;;;;43.87;17.73;;;3.30;99.90;;;;;;5073278;28;20208;-81
2021/01/01 03:32:24;;;;;;;41.67;17.90;;;3.20;99.90;;;;;;5072624;28;20204;-81
2021/01/01 03:34:51;;;;;;;41.97;17.87;;;3.20;99.90;;;;;;5072895;28;20568;-81
2021/01/01 03:37:18;;;;;;;39.37;16.67;;;3.10;99.90;;;;;;5072694;28;20202;-81
2021/01/01 03:39:44;;;;;;;43.63;17.50;;;3.10;99.90;;;;;;5072357;28;20226;-81
2021/01/01 03:42:11;;;;;;;39.57;17.53;;;3.00;99.90;;;;;;5071485;28;20206;-81
2021/01/01 03:44:38;;;;;;;39.77;16.73;;;3.00;99.90;;;;;;5063787;28;20211;-81
2021/01/01 03:47:04;;;;;;;44.17;17.53;;;2.90;99.90;;;;;;5056121;28;20209;-81
2021/01/01 03:49:32;;;;;;;45.47;18.03;;;2.90;99.90;;;;;;5065841;28;20207;-81
2021/01/01 03:51:58;;;;;;;39.23;16.57;;;2.90;99.90;;;;;;5060458;28;20211;-81
2021/01/01 03:54:24;;;;;;;46.47;16.70;;;3.00;99.90;;;;;;5070466;28;20234;-81
2021/01/01 03:56:51;;;;;;;33.30;16.03;;;2.90;99.90;;;;;;5072644;28;20239;-81
2021/01/01 03:59:17;;;;;;;38.17;16.70;;;2.90;99.90;;;;;;5070168;28;20833;-81
2021/01/01 04:01:43;;;;;;;40.50;16.40;;;3.00;99.90;;;;;;5060599;28;20208;-81
2021/01/01 04:04:10;;;;;;;38.50;17.13;;;3.00;99.90;;;;;;5072096;28;20573;-81
2021/01/01 04:06:37;;;;;;;35.40;15.73;;;3.00;99.90;;;;;;5072368;28;20291;-82
2021/01/01 04:09:04;;;;;;;36.77;16.93;;;2.90;99.90;;;;;;5072494;28;20216;-82
2021/01/01 04:11:35;;;;;;;37.97;16.47;;;2.90;99.90;;;;;;5072369;28;20204;-81
2021/01/01 04:14:01;;;;;;;38.73;17.10;;;3.00;99.90;;;;;;5072302;28;20227;-81
2021/01/01 04:16:27;;;;;;;36.90;16.57;;;3.00;99.90;;;;;;5069073;28;20292;-81
2021/01/01 04:18:54;;;;;;;34.97;16.47;;;3.00;99.90;;;;;;5061010;28;20219;-82
2021/01/01 04:21:20;;;;;;;36.17;17.27;;;3.00;99.90;;;;;;5071850;28;20199;-81
2021/01/01 04:23:47;;;;;;;39.87;16.83;;;3.00;99.90;;;;;;5072532;28;20210;-82
2021/01/01 04:26:14;;;;;;;35.47;16.00;;;3.00;99.90;;;;;;5072339;28;20306;-81
2021/01/01 04:28:40;;;;;;;37.80;16.30;;;3.10;99.90;;;;;;5072098;28;20692;-82
2021/01/01 04:31:06;;;;;;;35.00;16.63;;;3.10;99.90;;;;;;5072237;28;20200;-82
2021/01/01 04:33:33;;;;;;;33.80;15.67;;;3.00;99.90;;;;;;5071980;28;20759;-82
2021/01/01 04:35:59;;;;;;;39.60;16.90;;;3.00;99.90;;;;;;5072083;28;20582;-81
2021/01/01 04:38:25;;;;;;;37.80;16.10;;;2.90;99.90;;;;;;5071814;28;20256;-82
2021/01/01 04:40:53;;;;;;;36.50;16.53;;;2.90;99.90;;;;;;5072203;28;20210;-82
2021/01/01 04:43:19;;;;;;;33.60;16.73;;;2.90;99.90;;;;;;5071978;28;20208;-82
2021/01/01 04:45:46;;;;;;;42.20;16.87;;;2.90;99.90;;;;;;5072022;28;20219;-82
2021/01/01 04:48:13;;;;;;;32.47;17.13;;;2.90;99.90;;;;;;5072292;28;20258;-81
2021/01/01 04:50:39;;;;;;;40.80;17.27;;;2.90;99.90;;;;;;5068282;28;20214;-82
2021/01/01 04:53:09;;;;;;;36.33;17.57;;;2.90;99.90;;;;;;5061442;28;20200;-82
2021/01/01 04:55:37;;;;;;;42.37;17.83;;;2.90;99.90;;;;;;5071971;28;20209;-82
2021/01/01 04:58:04;;;;;;;31.77;17.57;;;2.80;99.90;;;;;;5072318;28;20201;-82
2021/01/01 05:00:32;;;;;;;34.90;17.63;;;2.80;99.90;;;;;;5074515;28;20213;-82
2021/01/01 05:02:58;;;;;;;35.37;17.73;;;2.80;99.90;;;;;;5075819;28;20204;-82
2021/01/01 05:05:27;;;;;;;33.67;16.97;;;2.80;99.90;;;;;;5076163;28;20202;-82
2021/01/01 05:07:54;;;;;;;34.57;16.83;;;2.80;99.90;;;;;;5075669;28;20219;-82
2021/01/01 05:10:20;;;;;;;44.17;17.83;;;2.80;99.90;;;;;;5076040;28;20208;-82
2021/01/01 05:12:48;;;;;;;35.53;16.97;;;2.80;99.90;;;;;;5075823;28;20287;-82
2021/01/01 05:15:32;;;;;;;35.50;17.30;;;2.80;99.90;;;;;;5075660;28;20559;-82
2021/01/01 05:17:59;;;;;;;41.20;16.90;;;2.80;99.90;;;;;;5075699;28;20202;-82
2021/01/01 05:20:27;;;;;;;57.95;28.17;;;2.90;99.90;;;;;;5074671;28;20438;-81
2021/01/01 05:22:57;;;;;;;45.70;19.93;;;2.80;99.90;;;;;;5075610;28;20873;-81
2021/01/01 05:25:25;;;;;;;39.47;18.00;;;3.00;99.90;;;;;;5075482;28;20212;-81
2021/01/01 05:27:58;;;;;;;38.00;17.67;;;3.10;99.90;;;;;;5075363;28;20211;-81
2021/01/01 05:30:31;;;;;;;40.67;18.17;;;3.20;99.90;;;;;;5075212;28;20200;-81
2021/01/01 05:32:58;;;;;;;33.80;17.37;;;3.20;99.90;;;;;;5075247;28;20209;-81
2021/01/01 05:35:29;;;;;;;30.60;16.07;;;3.30;99.90;;;;;;5075392;28;20254;-82
2021/01/01 05:37:56;;;;;;;30.37;17.27;;;3.20;99.90;;;;;;5075217;28;20284;-82
2021/01/01 05:40:32;;;;;;;36.47;17.30;;;3.30;99.90;;;;;;5075107;28;20561;-82
2021/01/01 05:43:17;;;;;;;37.63;17.20;;;3.40;99.90;;;;;;5074959;28;20244;-81
2021/01/01 05:45:45;;;;;;;31.57;17.07;;;3.50;99.90;;;;;;5075203;28;20249;-82
2021/01/01 05:48:11;;;;;;;32.67;16.63;;;3.50;99.90;;;;;;5074849;28;20662;-81
2021/01/01 05:50:37;;;;;;;31.13;16.40;;;3.40;99.90;;;;;;5071568;28;20636;-82
2021/01/01 05:53:12;;;;;;;31.77;17.53;;;3.40;99.90;;;;;;5064160;28;20210;-82
2021/01/01 05:55:38;;;;;;;34.67;17.67;;;3.30;99.90;;;;;;5074750;28;20203;-82
2021/01/01 05:58:19;;;;;;;33.00;17.10;;;3.30;99.90;;;;;;5074932;28;20682;-81
2021/01/01 06:00:50;;;;;;;32.30;17.13;;;3.30;99.90;;;;;;5074499;28;20657;-81
2021/01/01 06:03:22;;;;;;;36.67;17.80;;;3.40;99.90;;;;;;5075093;28;20208;-81
2021/01/01 06:05:52;;;;;;;32.20;17.80;;;3.40;99.90;;;;;;5075428;28;20208;-81
2021/01/01 06:08:22;;;;;;;34.30;17.30;;;3.30;99.90;;;;;;5075493;28;20315;-81
2021/01/01 06:10:50;;;;;;;34.37;16.90;;;3.30;99.90;;;;;;5075199;28;20245;-81
2021/01/01 06:13:19;;;;;;;32.00;16.73;;;3.20;99.90;;;;;;5074699;28;20212;-81
2021/01/01 06:15:55;;;;;;;32.77;16.20;;;3.20;99.90;;;;;;5074626;28;20208;-81
2021/01/01 06:18:26;;;;;;;38.10;16.63;;;3.20;99.90;;;;;;5061711;28;20204;-82
2021/01/01 06:20:58;;;;;;;34.43;16.90;;;3.10;99.90;;;;;;5074195;28;20235;-81
2021/01/01 06:23:35;;;;;;;30.10;15.67;;;3.20;99.90;;;;;;5074354;28;20658;-82
2021/01/01 06:26:03;;;;;;;34.27;16.33;;;3.20;99.90;;;;;;5074300;28;20205;-81
2021/01/01 06:28:31;;;;;;;31.13;15.90;;;3.20;99.90;;;;;;5074096;28;20291;-81
2021/01/01 06:30:59;;;;;;;28.47;16.10;;;3.20;99.90;;;;;;5074542;28;20209;-82
2021/01/01 06:33:26;;;;;;;34.10;17.03;;;3.10;99.90;;;;;;5074053;28;20291;-82
2021/01/01 06:35:54;;;;;;;37.40;18.13;;;3.00;99.90;;;;;;5074009;28;20665;-82
2021/01/01 06:38:38;;;;;;;33.13;16.67;;;3.10;99.90;;;;;;5073912;28;20205;-82
2021/01/01 06:41:10;;;;;;;31.43;16.97;;;3.00;99.90;;;;;;5073922;28;20204;-81
2021/01/01 06:43:55;;;;;;;36.97;17.90;;;3.10;99.90;;;;;;5073819;28;20216;-81
2021/01/01 06:46:43;;;;;;;35.87;17.43;;;3.10;99.90;;;;;;5074272;28;20204;-81
2021/01/01 06:49:30;;;;;;;37.13;17.50;;;3.10;99.90;;;;;;5058026;28;20658;-82
2021/01/01 06:52:12;;;;;;;33.27;16.47;;;3.10;99.90;;;;;;5059844;28;20202;-82
2021/01/01 06:54:59;;;;;;;33.23;17.10;;;3.10;99.90;;;;;;5062511;28;20292;-82
2021/01/01 06:57:27;;;;;;;35.30;16.17;;;3.10;99.90;;;;;;5073721;28;20193;-82
2021/01/01 06:59:54;;;;;;;37.20;17.60;;;3.20;99.90;;;;;;5073516;28;20599;-82
2021/01/01 07:02:25;;;;;;;30.70;16.57;;;3.30;99.90;;;;;;5073585;28;20264;-82
2021/01/01 07:04:52;;;;;;;32.80;17.17;;;3.20;99.90;;;;;;5073575;28;20608;-81
2021/01/01 07:07:41;;;;;;;30.63;16.77;;;3.20;99.90;;;;;;5073194;28;20296;-81
2021/01/01 07:10:13;;;;;;;25.87;14.80;;;3.10;99.90;;;;;;5073248;28;20550;-82
2021/01/01 07:12:39;;;;;;;35.00;16.60;;;3.10;99.90;;;;;;5073291;28;20208;-82
2021/01/01 07:15:31;;;;;;;29.23;15.80;;;3.20;99.90;;;;;;5073240;28;20228;-82
2021/01/01 07:17:59;;;;;;;34.47;16.13;;;3.30;99.90;;;;;;5073216;28;20203;-82
2021/01/01 07:20:25;;;;;;;33.10;15.43;;;3.30;99.90;;;;;;5073077;28;20220;-82
2021/01/01 07:22:57;;;;;;;30.53;16.40;;;3.40;99.90;;;;;;5071672;28;20200;-82
2021/01/01 07:25:36;;;;;;;31.17;16.20;;;3.30;99.90;;;;;;5068381;28;20289;-82
2021/01/01 07:28:05;;;;;;;33.87;15.40;;;3.30;99.90;;;;;;5065558;28;20200;-82
2021/01/01 07:30:33;;;;;;;36.60;16.03;;;3.30;99.90;;;;;;5072439;28;20200;-81
2021/01/01 07:33:00;;;;;;;29.33;15.67;;;3.30;99.90;;;;;;5070689;28;20704;-82
2021/01/01 07:35:28;;;;;;;40.03;16.97;;;3.30;99.90;;;;;;5062153;28;20886;-82
2021/01/01 07:37:54;;;;;;;31.10;15.57;;;3.40;99.90;;;;;;5061736;28;20575;-81
2021/01/01 07:40:21;;;;;;;29.27;15.33;;;3.40;99.90;;;;;;5062371;28;20239;-82
2021/01/01 07:42:48;;;;;;;30.67;16.13;;;3.30;99.90;;;;;;5072325;28;20673;-82
2021/01/01 07:45:15;;;;;;;30.10;15.13;;;3.30;99.90;;;;;;5071667;28;20205;-82
2021/01/01 07:47:46;;;;;;;28.97;15.03;;;3.30;99.90;;;;;;5072126;28;20295;-81
2021/01/01 07:50:15;;;;;;;26.57;14.77;;;3.20;99.90;;;;;;5072388;28;20197;-82
2021/01/01 07:52:41;;;;;;;30.60;15.63;;;3.30;99.90;;;;;;5061322;28;20209;-82
2021/01/01 07:55:09;;;;;;;27.07;14.27;;;3.20;99.90;;;;;;5072100;28;20772;-82
2021/01/01 07:57:36;;;;;;;29.60;14.90;;;3.30;99.90;;;;;;5072227;28;20243;-82
2021/01/01 08:00:05;;;;;;;28.50;15.53;;;3.30;99.90;;;;;;5072120;28;20661;-83
2021/01/01 08:02:33;;;;;;;28.67;15.00;;;3.40;99.90;;;;;;5071943;28;20217;-82
2021/01/01 08:05:01;;;;;;;31.37;15.63;;;3.40;99.90;;;;;;5068885;28;20244;-82
2021/01/01 08:07:28;;;;;;;27.80;14.60;;;3.50;99.90;;;;;;5067208;28;20207;-82
2021/01/01 08:09:55;;;;;;;33.03;17.10;;;3.50;99.90;;;;;;5072083;28;20254;-82
2021/01/01 08:12:21;;;;;;;32.20;18.20;;;3.50;99.90;;;;;;5072019;28;20199;-82
2021/01/01 08:14:51;;;;;;;27.03;15.03;;;3.50;99.90;;;;;;5066210;28;20229;-82
2021/01/01 08:17:22;;;;;;;24.33;13.73;;;3.50;99.90;;;;;;5072565;28;20242;-82
2021/01/01 08:19:49;;;;;;;30.00;15.70;;;3.70;99.90;;;;;;5068279;28;20217;-82
2021/01/01 08:22:23;;;;;;;70.33;31.87;;;3.70;99.90;;;;;;5052322;28;20208;-83
2021/01/01 08:24:55;;;;;;;67.73;34.93;;;3.80;99.90;;;;;;5070055;28;20446;-83
2021/01/01 08:27:22;;;;;;;50.23;26.83;;;3.80;99.90;;;;;;5071959;28;20201;-84
2021/01/01 08:29:50;;;;;;;44.80;24.17;;;3.90;99.90;;;;;;5071932;28;20296;-83
2021/01/01 08:32:18;;;;;;;41.33;20.77;;;4.00;99.90;;;;;;5065269;28;20201;-83
2021/01/01 08:34:48;;;;;;;29.67;15.90;;;4.00;99.90;;;;;;5073264;28;20567;-83
2021/01/01 08:37:19;;;;;;;27.13;15.00;;;4.00;99.90;;;;;;5075854;28;20203;-82
2021/01/01 08:39:45;;;;;;;26.33;14.17;;;4.00;99.90;;;;;;5074473;28;20286;-83
2021/01/01 08:42:22;;;;;;;30.60;13.67;;;4.10;99.90;;;;;;5072589;28;20201;-84
2021/01/01 08:44:48;;;;;;;26.33;13.67;;;4.10;99.90;;;;;;5073887;28;20208;-83
2021/01/01 08:47:16;;;;;;;28.93;13.80;;;4.20;99.90;;;;;;5076063;28;20204;-83
2021/01/01 08:49:42;;;;;;;26.83;13.87;;;4.20;99.90;;;;;;5076078;28;20305;-82
2021/01/01 08:52:12;;;;;;;25.33;14.70;;;4.20;99.90;;;;;;5061714;28;20204;-82
2021/01/01 08:54:39;;;;;;;22.93;13.67;;;4.30;99.90;;;;;;5076001;28;20253;-83
2021/01/01 08:57:05;;;;;;;26.57;13.53;;;4.30;99.90;;;;;;5075484;28;20211;-82
2021/01/01 08:59:33;;;;;;;27.07;14.03;;;4.40;99.90;;;;;;5065040;28;20287;-83
2021/01/01 09:02:03;;;;;;;24.27;13.73;;;4.30;99.90;;;;;;5075567;28;20208;-82
2021/01/01 09:04:30;;;;;;;28.23;13.83;;;4.30;99.90;;;;;;5069141;28;20215;-81
2021/01/01 09:06:58;;;;;;;25.17;13.83;;;4.30;99.90;;;;;;5074485;28;20263;-84
2021/01/01 09:09:29;;;;;;;26.83;14.57;;;4.30;99.90;;;;;;5074663;28;20327;-81
2021/01/01 09:12:15;;;;;;;26.63;13.93;;;4.30;99.90;;;;;;5074174;28;20211;-80
2021/01/01 09:14:45;;;;;;;24.53;12.97;;;4.40;99.90;;;;;;5072985;28;20675;-82
2021/01/01 09:17:11;;;;;;;27.20;14.33;;;4.30;99.90;;;;;;5073888;28;20214;-81
2021/01/01 09:19:37;;;;;;;28.17;14.07;;;4.40;99.90;;;;;;5073357;28;20212;-82
2021/01/01 09:22:12;;;;;;;22.90;14.00;;;4.40;99.90;;;;;;5073714;28;20213;-84
2021/01/01 09:24:38;;;;;;;27.50;15.07;;;4.50;99.90;;;;;;5072510;28;20197;-83
2021/01/01 09:27:05;;;;;;;28.17;14.33;;;4.50;99.90;;;;;;5059461;28;20887;-83
2021/01/01 09:29:32;;;;;;;31.80;14.63;;;4.60;99.90;;;;;;5058037;28;20197;-83
2021/01/01 09:31:59;;;;;;;27.60;13.80;;;4.70;99.90;;;;;;5074279;28;20201;-83
2021/01/01 09:34:25;;;;;;;25.87;13.73;;;4.80;99.90;;;;;;5074113;28;20685;-83
2021/01/01 09:36:51;;;;;;;26.40;14.43;;;5.00;99.90;;;;;;5074160;28;20203;-82
2021/01/01 09:39:18;;;;;;;26.47;14.93;;;5.00;99.90;;;;;;5073878;28;20207;-82
2021/01/01 09:41:48;;;;;;;28.77;15.47;;;5.10;99.90;;;;;;5073896;28;20205;-82
2021/01/01 09:44:14;;;;;;;28.80;14.63;;;5.10;99.90;;;;;;5073871;28;20193;-82
2021/01/01 09:46:44;;;;;;;23.63;13.93;;;5.10;99.90;;;;;;5060905;28;20193;-82
2021/01/01 09:49:11;;;;;;;27.07;13.83;;;5.10;99.90;;;;;;5072360;28;21535;-84
2021/01/01 09:51:39;;;;;;;26.50;13.93;;;5.20;99.90;;;;;;5070246;28;20204;-84
2021/01/01 09:54:06;;;;;;;28.17;13.97;;;5.30;99.90;;;;;;5056075;28;20225;-83
2021/01/01 09:56:33;;;;;;;25.80;13.27;;;5.30;99.90;;;;;;5060465;28;20726;-83
2021/01/01 09:59:00;;;;;;;27.50;13.50;;;5.30;99.90;;;;;;5073114;28;20211;-83
2021/01/01 10:01:30;;;;;;;23.40;13.60;;;5.30;99.90;;;;;;5075261;28;20213;-82
2021/01/01 10:03:56;;;;;;;29.37;14.70;;;5.10;99.90;;;;;;5068850;28;20681;-81
2021/01/01 10:06:23;;;;;;;27.60;15.17;;;5.00;99.90;;;;;;5072216;28;20207;-83
2021/01/01 10:08:50;;;;;;;27.50;14.57;;;5.00;99.90;;;;;;5068563;28;20358;-81
2021/01/01 10:11:17;;;;;;;25.80;14.50;;;5.10;99.90;;;;;;5064202;28;20211;-81
2021/01/01 10:13:43;;;;;;;25.10;13.63;;;5.10;99.90;;;;;;5077680;28;20569;-80
2021/01/01 10:16:11;;;;;;;24.47;14.60;;;5.00;99.90;;;;;;5075352;28;20209;-81
2021/01/01 10:18:39;;;;;;;24.60;14.37;;;5.00;99.90;;;;;;5074662;28;20327;-82
2021/01/01 10:21:06;;;;;;;22.70;14.60;;;5.00;99.90;;;;;;5075436;28;20206;-82
2021/01/01 10:23:34;;;;;;;28.67;14.87;;;5.10;99.90;;;;;;5074168;28;20201;-82
2021/01/01 10:26:00;;;;;;;24.33;14.37;;;5.10;99.90;;;;;;5075011;28;20202;-81
2021/01/01 10:28:27;;;;;;;27.07;14.77;;;5.00;99.90;;;;;;5074131;28;20206;-81
2021/01/01 10:30:53;;;;;;;29.43;14.73;;;5.10;99.90;;;;;;5074941;28;20213;-82
2021/01/01 10:33:20;;;;;;;27.17;15.37;;;5.00;99.90;;;;;;5081324;28;20272;-81
2021/01/01 10:35:46;;;;;;;28.20;15.00;;;5.00;99.90;;;;;;5061876;28;20650;-81
2021/01/01 10:38:13;;;;;;;28.63;15.40;;;5.00;99.90;;;;;;5074670;28;20724;-81
2021/01/01 10:40:40;;;;;;;32.73;15.07;;;4.90;99.90;;;;;;5076255;28;20227;-81
2021/01/01 10:43:06;;;;;;;27.93;15.67;;;4.90;99.90;;;;;;5080752;28;20208;-81
2021/01/01 10:45:33;;;;;;;28.87;15.50;;;4.90;99.90;;;;;;5074620;28;20202;-80
2021/01/01 10:47:59;;;;;;;27.73;15.63;;;4.90;99.90;;;;;;5074348;28;20638;-81
2021/01/01 10:50:25;;;;;;;29.63;16.07;;;4.80;99.90;;;;;;5070042;28;20637;-81
2021/01/01 10:52:52;;;;;;;29.23;15.37;;;4.80;99.90;;;;;;5061612;28;20200;-81
2021/01/01 10:55:19;;;;;;;26.60;15.20;;;4.80;99.90;;;;;;5068736;28;20233;-81
2021/01/01 10:57:46;;;;;;;26.87;15.33;;;4.80;99.90;;;;;;5071051;28;20207;-81
2021/01/01 11:00:13;;;;;;;28.57;15.57;;;4.80;99.90;;;;;;5072948;28;20668;-81
2021/01/01 11:02:40;;;;;;;26.43;15.07;;;4.80;99.90;;;;;;5066543;28;20282;-82
2021/01/01 11:05:08;;;;;;;33.27;16.60;;;4.80;99.90;;;;;;5076343;28;20568;-83
2021/01/01 11:07:34;;;;;;;28.63;15.80;;;4.90;99.90;;;;;;5073322;28;20208;-82
2021/01/01 11:10:00;;;;;;;31.10;15.23;;;4.80;99.90;;;;;;5069637;28;20204;-82
2021/01/01 11:12:28;;;;;;;30.27;15.03;;;4.90;99.90;;;;;;5066746;28;20231;-81
2021/01/01 11:15:20;;;;;;;28.67;15.63;;;5.00;99.90;;;;;;5059836;28;20259;-82
2021/01/01 12:23:58;;;;;;;21.37;11.70;;;6.20;99.90;;;;;;5027712;28;20208;-82
2021/01/01 12:26:25;;;;;;;23.17;12.33;;;6.20;99.90;;;;;;5065942;28;20195;-82
2021/01/01 12:28:52;;;;;;;20.70;11.40;;;6.10;99.90;;;;;;5065799;28;20207;-82
2021/01/01 12:31:18;;;;;;;25.93;11.83;;;6.00;99.90;;;;;;5070865;28;20212;-81
2021/01/01 12:33:45;;;;;;;22.17;11.63;;;5.80;99.90;;;;;;5052207;28;20288;-82
2021/01/01 12:36:12;;;;;;;19.57;12.60;;;5.60;99.90;;;;;;5053848;28;20218;-82
2021/01/01 12:38:38;;;;;;;18.47;11.43;;;5.70;99.90;;;;;;5056607;28;20205;-83
2021/01/01 12:41:04;;;;;;;22.43;11.83;;;5.70;99.90;;;;;;5053832;28;20613;-82
2021/01/01 12:43:31;;;;;;;22.93;12.13;;;5.70;99.90;;;;;;5057767;28;20213;-82
2021/01/01 12:45:57;;;;;;;24.57;11.90;;;5.60;99.90;;;;;;5051423;28;20205;-82
2021/01/01 12:48:23;;;;;;;19.87;11.03;;;5.60;99.90;;;;;;5053901;28;20301;-82
2021/01/01 12:50:50;;;;;;;18.53;11.23;;;5.60;99.90;;;;;;5069559;28;20224;-82
2021/01/01 12:53:17;;;;;;;20.20;11.97;;;5.60;99.90;;;;;;5070733;28;20200;-82
2021/01/01 12:55:43;;;;;;;20.70;12.10;;;5.60;99.90;;;;;;5070818;28;20235;-82
2021/01/01 12:58:10;;;;;;;20.30;11.37;;;5.70;99.90;;;;;;5071373;28;20208;-82
2021/01/01 13:00:36;;;;;;;19.97;11.87;;;5.70;99.90;;;;;;5070563;28;20659;-82
2021/01/01 13:03:02;;;;;;;21.33;11.90;;;5.70;99.90;;;;;;5071416;28;20632;-81
2021/01/01 13:05:29;;;;;;;19.33;10.83;;;5.80;99.90;;;;;;5070489;28;20692;-82
2021/01/01 13:07:56;;;;;;;20.57;10.97;;;5.80;99.90;;;;;;5065245;28;20205;-82
2021/01/01 13:10:23;;;;;;;19.57;11.50;;;5.80;99.90;;;;;;5071437;28;20236;-80
2021/01/01 13:12:51;;;;;;;22.90;11.70;;;5.80;99.90;;;;;;5068971;28;20704;-82
2021/01/01 13:15:18;;;;;;;21.00;10.70;;;5.80;99.90;;;;;;5056229;28;20270;-82
2021/01/01 13:17:44;;;;;;;18.23;10.60;;;5.60;99.90;;;;;;5057049;28;20223;-82
2021/01/01 13:20:12;;;;;;;21.10;10.60;;;5.70;99.90;;;;;;5057048;28;20220;-82
2021/01/01 13:22:38;;;;;;;24.47;11.63;;;5.70;99.90;;;;;;5066735;28;20623;-82
2021/01/01 13:25:06;;;;;;;19.30;11.10;;;5.80;99.90;;;;;;5068899;28;20209;-82
2021/01/01 13:27:33;;;;;;;24.80;11.73;;;5.90;99.90;;;;;;5067829;28;20550;-81
2021/01/01 13:29:59;;;;;;;19.33;10.43;;;6.00;99.90;;;;;;5059909;28;20661;-82
2021/01/01 13:32:25;;;;;;;17.43;9.43;;;6.00;99.90;;;;;;5068526;28;20204;-82
2021/01/01 13:34:52;;;;;;;18.17;10.50;;;6.00;99.90;;;;;;5066878;28;20217;-81
2021/01/01 13:37:18;;;;;;;18.37;9.37;;;5.90;99.90;;;;;;5071386;28;20201;-82
2021/01/01 13:39:45;;;;;;;17.00;9.67;;;6.00;99.90;;;;;;5073218;28;20212;-83
2021/01/01 13:42:13;;;;;;;21.07;9.70;;;6.00;99.90;;;;;;5058355;28;20202;-82
2021/01/01 13:44:40;;;;;;;20.17;10.33;;;6.10;99.90;;;;;;5064563;28;20191;-83
2021/01/01 13:47:06;;;;;;;16.27;9.20;;;6.10;99.90;;;;;;5062130;28;20342;-82
2021/01/01 13:49:33;;;;;;;17.90;10.07;;;6.20;99.90;;;;;;5060726;28;20209;-82